Hlavní strana
METAR-TAF:

METAR-TAF

Letiště :

Southern Illinois Airport

Carbondale / Murphysboro, Illinois, Spojené státy americké

zeměpisná šířka: 37-46-59N, zeměpisná délka: 089-14-42W, výška: 125 m

Aktuální stav počasí

Zpráva byla vytvořena před 39 minutami, v 16:15 UTC
Severoseverozápadní vítr 7 kt
Teplota 5°C
Vlhkost vzduchu 87%
Tlak 1025 hPa
Viditelnost: 6.4 km
Zataženo ve výšce 1000 ft
kouřmo

METAR: KMDH 181615Z 34007KT 4SM BR OVC010 05/03 A3026 RMK AO2 T00500028

Čas: 10:54 (16:54 UTC)


TAF: chybějící

Stav a předpovědi počasí z více než 4 000 letišť (zprávy METAR a TAF).

Červené a žluté tečky na mapě představují dostupné meteorologické stanice.

Když kurzor umístíte na tečku, zobrazí se název stanice.

Pak kliknutím zobrazíte stav a předpověď počasí.

Chcete-li změnit mapu, kliknutím na zelené tlačítko se znaménkem +mapu přiblížíte, kliknutím na zelené tlačítko se znaménkem – mapu oddálíte a kliknutím na zelené šipky přejdete na sousední mapy.


METAR-TAF: